METAR Data
IDs: Format: Raw Decoded Include TAF

Data at: 1405 UTC 20 Oct 2021

ESMT 201350Z AUTO 24017KT 8000 UP OVC003/// 13/13 Q0991